createdAt,value
2022-10-13T00:07:52.587Z,8.30
2022-10-13T00:13:07.878Z,8.48
2022-10-13T00:18:23.874Z,5.57
2022-10-13T00:23:39.595Z,5.35
2022-10-13T00:29:00.603Z,7.05
2022-10-13T00:34:15.582Z,7.10
2022-10-13T00:39:30.572Z,5.68
2022-10-13T00:44:45.895Z,5.78
2022-10-13T00:50:01.566Z,5.18
2022-10-13T00:55:16.820Z,4.93
2022-10-13T01:00:32.966Z,5.85
2022-10-13T01:05:48.563Z,16.45
2022-10-13T01:11:03.608Z,7.30
2022-10-13T01:16:19.566Z,9.45
2022-10-13T01:21:34.609Z,5.03
2022-10-13T01:26:49.549Z,5.97
2022-10-13T01:32:04.514Z,6.65
2022-10-13T01:37:19.636Z,6.47
2022-10-13T01:42:34.536Z,7.57
2022-10-13T01:47:54.566Z,4.63
2022-10-13T01:53:09.902Z,7.60
2022-10-13T01:58:26.884Z,5.68
2022-10-13T02:03:42.605Z,7.50
2022-10-13T02:08:57.859Z,8.85
2022-10-13T02:14:13.633Z,7.47
2022-10-13T02:19:28.861Z,8.45
2022-10-13T02:24:44.544Z,11.57
2022-10-13T02:30:00.325Z,14.23
2022-10-13T02:35:15.556Z,15.15
2022-10-13T02:40:31.655Z,15.68
2022-10-13T02:45:46.864Z,23.67
2022-10-13T02:51:02.594Z,22.27
2022-10-13T02:56:17.544Z,25.00
2022-10-13T03:01:32.915Z,22.33
2022-10-13T03:06:48.684Z,21.23
2022-10-13T03:12:03.946Z,23.35
2022-10-13T03:17:19.871Z,22.67
2022-10-13T03:22:35.935Z,23.35
2022-10-13T03:27:51.597Z,21.02
2022-10-13T03:33:06.886Z,21.75
2022-10-13T03:38:22.593Z,33.58
2022-10-13T03:43:37.687Z,25.23
2022-10-13T03:48:52.610Z,23.73
2022-10-13T03:54:07.563Z,23.40
2022-10-13T03:59:22.591Z,30.08
2022-10-13T04:04:37.584Z,26.02
2022-10-13T04:09:52.541Z,21.52
2022-10-13T04:15:07.562Z,26.65
2022-10-13T04:20:22.561Z,26.73
2022-10-13T04:25:37.901Z,25.02
2022-10-13T04:30:53.569Z,24.00
2022-10-13T04:36:10.615Z,22.45
2022-10-13T04:41:26.879Z,22.80
2022-10-13T04:46:42.611Z,18.77
2022-10-13T04:51:57.589Z,19.73
2022-10-13T04:57:12.961Z,15.30
2022-10-13T05:02:29.041Z,13.88
2022-10-13T05:07:45.880Z,12.02
2022-10-13T05:13:01.588Z,18.25
2022-10-13T05:18:16.575Z,12.38
2022-10-13T05:23:31.612Z,12.98
2022-10-13T05:28:46.691Z,16.70
2022-10-13T05:34:01.619Z,13.70
2022-10-13T05:39:16.969Z,10.85
2022-10-13T05:44:32.586Z,10.05
2022-10-13T05:49:47.558Z,10.98
2022-10-13T05:55:02.629Z,10.07
2022-10-13T06:00:17.589Z,13.68
2022-10-13T06:05:35.569Z,13.20
2022-10-13T06:10:50.593Z,18.00
2022-10-13T06:16:05.573Z,36.70
2022-10-13T06:21:20.942Z,37.78
2022-10-13T06:26:36.568Z,34.72
2022-10-13T06:31:51.572Z,32.70
2022-10-13T06:37:06.677Z,35.67
2022-10-13T06:42:22.128Z,26.45
2022-10-13T06:47:57.931Z,71.07
2022-10-13T06:53:17.589Z,88.10
2022-10-13T06:58:32.394Z,79.70
2022-10-13T07:03:47.558Z,81.75
2022-10-13T07:09:02.660Z,83.13
2022-10-13T07:14:17.666Z,81.82
2022-10-13T07:19:32.927Z,85.50
2022-10-13T07:24:48.864Z,77.45
2022-10-13T07:30:05.557Z,73.85
2022-10-13T07:35:21.084Z,64.97
2022-10-13T07:40:36.812Z,70.53
2022-10-13T07:45:52.616Z,55.70
2022-10-13T07:51:09.590Z,58.83
2022-10-13T07:56:24.720Z,58.28
2022-10-13T08:01:39.956Z,50.42
2022-10-13T08:06:55.650Z,44.05
2022-10-13T08:12:10.978Z,50.08
2022-10-13T08:17:26.624Z,41.40
2022-10-13T08:22:41.915Z,39.00
2022-10-13T08:28:00.445Z,42.17
2022-10-13T08:33:16.625Z,51.60
2022-10-13T08:38:31.909Z,37.90
2022-10-13T08:44:24.712Z,29.77
2022-10-13T08:49:22.995Z,27.33
2022-10-13T08:54:38.645Z,27.25
2022-10-13T08:59:53.647Z,31.30
2022-10-13T09:05:45.586Z,25.77
2022-10-13T09:11:00.639Z,29.60
2022-10-13T09:16:15.912Z,28.67
2022-10-13T09:21:31.588Z,24.63
2022-10-13T09:26:46.637Z,26.70
2022-10-13T09:32:01.617Z,25.30
2022-10-13T09:37:16.675Z,28.02
2022-10-13T09:42:31.482Z,31.45
2022-10-13T09:47:47.589Z,23.25
2022-10-13T09:53:02.503Z,19.83
2022-10-13T09:58:17.852Z,24.08
2022-10-13T10:03:33.734Z,16.60
2022-10-13T10:09:02.878Z,22.35
2022-10-13T10:14:19.575Z,19.13
2022-10-13T10:19:34.761Z,18.58
2022-10-13T10:24:49.661Z,17.25
2022-10-13T10:30:04.628Z,17.42
2022-10-13T10:35:19.619Z,16.30
2022-10-13T10:40:34.669Z,11.75
2022-10-13T10:45:49.586Z,19.65
2022-10-13T10:51:06.689Z,14.65
2022-10-13T10:56:21.596Z,12.93
2022-10-13T11:01:39.501Z,13.55
2022-10-13T11:06:55.694Z,10.43
2022-10-13T11:12:10.368Z,14.02
2022-10-13T11:17:25.654Z,15.02
2022-10-13T11:22:40.606Z,10.18
2022-10-13T11:27:55.614Z,10.05
2022-10-13T11:33:11.516Z,10.35
2022-10-13T11:38:27.591Z,10.15
2022-10-13T11:43:42.601Z,12.55
2022-10-13T11:48:57.663Z,7.90
2022-10-13T11:54:12.634Z,9.05
2022-10-13T11:59:27.622Z,10.82
2022-10-13T12:04:46.553Z,8.88
2022-10-13T12:10:01.653Z,19.20
2022-10-13T12:15:16.633Z,12.05
2022-10-13T12:20:31.630Z,14.18
2022-10-13T12:25:47.090Z,13.30
2022-10-13T12:31:02.616Z,11.07
2022-10-13T12:36:18.591Z,6.82
2022-10-13T12:41:33.998Z,16.67
2022-10-13T12:46:49.629Z,7.38
2022-10-13T12:52:04.551Z,8.50
2022-10-13T12:57:19.679Z,6.55
2022-10-13T13:02:34.695Z,8.95
2022-10-13T13:07:49.587Z,7.28
2022-10-13T13:13:04.896Z,5.97
2022-10-13T13:18:20.616Z,8.93
2022-10-13T13:23:35.631Z,5.22
2022-10-13T13:28:50.609Z,8.50
2022-10-13T13:34:05.965Z,7.57
2022-10-13T13:39:22.862Z,6.97
2022-10-13T13:44:38.899Z,8.85
2022-10-13T13:49:54.401Z,9.43
2022-10-13T13:55:10.608Z,6.72
2022-10-13T14:00:25.670Z,6.70
2022-10-13T14:05:40.898Z,6.55
2022-10-13T14:11:00.418Z,6.15
2022-10-13T14:16:15.941Z,6.70
2022-10-13T14:21:33.920Z,8.57
2022-10-13T14:26:52.590Z,6.82
2022-10-13T14:32:07.604Z,6.35
2022-10-13T14:37:23.533Z,6.63
2022-10-13T14:42:40.697Z,5.30
2022-10-13T14:47:57.608Z,6.10
2022-10-13T14:53:13.029Z,5.90
2022-10-13T14:58:28.611Z,8.38
2022-10-13T15:03:43.648Z,5.65
2022-10-13T15:08:58.799Z,8.23
2022-10-13T15:14:13.602Z,7.13
2022-10-13T15:19:28.618Z,7.70
2022-10-13T15:24:44.630Z,5.45
2022-10-13T15:29:59.656Z,7.05
2022-10-13T15:35:14.671Z,6.45
2022-10-13T15:40:29.928Z,7.07
2022-10-13T15:45:45.654Z,9.93
2022-10-13T15:51:00.672Z,17.55
2022-10-13T15:56:15.633Z,34.63
2022-10-13T16:01:30.641Z,36.03
2022-10-13T16:06:45.623Z,49.13
2022-10-13T16:12:00.624Z,65.60
2022-10-13T16:17:15.655Z,68.15
2022-10-13T16:22:30.641Z,57.90
2022-10-13T16:27:47.628Z,72.20
2022-10-13T16:33:02.643Z,66.55
2022-10-13T16:38:17.928Z,76.70
2022-10-13T16:43:33.611Z,64.10
2022-10-13T16:48:48.651Z,66.90
2022-10-13T16:54:04.567Z,69.85
2022-10-13T16:59:19.657Z,60.88
2022-10-13T17:04:34.492Z,56.63
2022-10-13T17:09:49.660Z,52.05
2022-10-13T17:15:04.970Z,47.80
2022-10-13T17:20:21.395Z,52.63
2022-10-13T17:25:36.596Z,45.22
2022-10-13T17:30:52.891Z,41.58
2022-10-13T17:36:08.642Z,38.30
2022-10-13T17:41:23.705Z,38.78
2022-10-13T17:46:39.429Z,40.65
2022-10-13T17:51:54.746Z,33.70
2022-10-13T17:57:09.698Z,37.03
2022-10-13T18:02:24.934Z,31.20
2022-10-13T18:07:40.704Z,34.67
2022-10-13T18:12:55.649Z,27.23
2022-10-13T18:18:11.624Z,28.50
2022-10-13T18:23:26.642Z,22.92
2022-10-13T18:28:41.654Z,22.33
2022-10-13T18:34:00.693Z,26.05
2022-10-13T18:39:16.646Z,17.30
2022-10-13T18:44:31.841Z,19.40
2022-10-13T18:49:47.653Z,19.42
2022-10-13T18:55:02.425Z,19.25
2022-10-13T19:00:17.657Z,23.98
2022-10-13T19:05:32.683Z,20.33
2022-10-13T19:10:47.976Z,21.50
2022-10-13T19:16:03.704Z,15.68
2022-10-13T19:21:18.946Z,15.73
2022-10-13T19:26:34.660Z,13.52
2022-10-13T19:31:49.627Z,14.63
2022-10-13T19:37:04.713Z,13.10
2022-10-13T19:42:19.668Z,14.23
2022-10-13T19:47:34.951Z,11.10
2022-10-13T19:52:50.394Z,12.00
2022-10-13T19:58:05.683Z,11.63
2022-10-13T20:03:20.963Z,9.30
2022-10-13T20:08:36.660Z,8.55
2022-10-13T20:13:51.673Z,10.32
2022-10-13T20:19:06.754Z,10.15
2022-10-13T20:24:23.661Z,8.70
2022-10-13T20:29:38.648Z,8.02
2022-10-13T20:34:53.639Z,8.52
2022-10-13T20:40:08.689Z,9.70
2022-10-13T20:45:23.377Z,7.68
2022-10-13T20:50:38.872Z,8.55
2022-10-13T20:55:55.073Z,7.65
2022-10-13T21:01:10.772Z,8.27
2022-10-13T21:06:25.649Z,9.40
2022-10-13T21:11:42.632Z,9.45
2022-10-13T21:16:57.961Z,8.68
2022-10-13T21:22:13.627Z,7.78
2022-10-13T21:27:28.650Z,21.48
2022-10-13T21:32:43.677Z,15.82
2022-10-13T21:37:58.659Z,7.32
2022-10-13T21:43:13.648Z,8.00
2022-10-13T21:48:28.672Z,9.88
2022-10-13T21:53:43.690Z,9.52
2022-10-13T21:58:58.991Z,7.22
2022-10-13T22:04:14.654Z,9.52
2022-10-13T22:09:29.696Z,7.53
2022-10-13T22:14:44.872Z,9.88
2022-10-13T22:20:02.014Z,9.52
2022-10-13T22:25:17.697Z,15.90
2022-10-13T22:30:32.970Z,10.23
2022-10-13T22:35:51.719Z,13.93
2022-10-13T22:41:06.632Z,9.45
2022-10-13T22:46:21.955Z,14.27
2022-10-13T22:51:37.675Z,11.38
2022-10-13T22:56:52.699Z,11.52
2022-10-13T23:02:08.679Z,9.77
2022-10-13T23:07:24.963Z,13.93
2022-10-13T23:12:40.645Z,22.02
2022-10-13T23:17:55.430Z,17.90
2022-10-13T23:23:10.664Z,18.95
2022-10-13T23:28:25.690Z,19.50
2022-10-13T23:33:42.684Z,15.15
2022-10-13T23:38:57.642Z,13.00
2022-10-13T23:44:12.928Z,12.68
2022-10-13T23:49:29.692Z,13.20
2022-10-13T23:54:44.635Z,22.17
